sensor_id;sensor_type;location;lat;lon;timestamp;temperature;humidity
10083;DHT22;5080;48.528;8.078;2024-03-25T00:02:00;6.90;99.90
10083;DHT22;5080;48.528;8.078;2024-03-25T00:04:29;6.90;99.90
10083;DHT22;5080;48.528;8.078;2024-03-25T00:06:54;6.90;99.90
10083;DHT22;5080;48.528;8.078;2024-03-25T00:09:22;6.90;99.90
10083;DHT22;5080;48.528;8.078;2024-03-25T00:11:48;6.90;99.90
10083;DHT22;5080;48.528;8.078;2024-03-25T00:14:19;6.90;99.90
10083;DHT22;5080;48.528;8.078;2024-03-25T00:16:45;6.90;99.90
10083;DHT22;5080;48.528;8.078;2024-03-25T00:19:12;6.90;99.90
10083;DHT22;5080;48.528;8.078;2024-03-25T00:21:39;6.80;99.90
10083;DHT22;5080;48.528;8.078;2024-03-25T00:24:07;6.80;99.90
10083;DHT22;5080;48.528;8.078;2024-03-25T00:26:33;6.80;99.90
10083;DHT22;5080;48.528;8.078;2024-03-25T00:29:00;6.80;99.90
10083;DHT22;5080;48.528;8.078;2024-03-25T00:31:26;6.80;99.90
10083;DHT22;5080;48.528;8.078;2024-03-25T00:33:53;6.80;99.90
10083;DHT22;5080;48.528;8.078;2024-03-25T00:36:18;6.80;99.90
10083;DHT22;5080;48.528;8.078;2024-03-25T00:38:47;6.80;99.90
10083;DHT22;5080;48.528;8.078;2024-03-25T00:41:12;6.80;99.90
10083;DHT22;5080;48.528;8.078;2024-03-25T00:43:39;6.80;99.90
10083;DHT22;5080;48.528;8.078;2024-03-25T00:46:05;6.80;99.90
10083;DHT22;5080;48.528;8.078;2024-03-25T00:48:32;6.80;99.90
10083;DHT22;5080;48.528;8.078;2024-03-25T00:50:58;6.70;99.90
10083;DHT22;5080;48.528;8.078;2024-03-25T00:53:24;6.60;99.90
10083;DHT22;5080;48.528;8.078;2024-03-25T00:55:51;6.60;99.90
10083;DHT22;5080;48.528;8.078;2024-03-25T00:58:18;6.60;99.90
10083;DHT22;5080;48.528;8.078;2024-03-25T01:00:46;6.70;99.90
10083;DHT22;5080;48.528;8.078;2024-03-25T01:03:13;6.70;99.90
10083;DHT22;5080;48.528;8.078;2024-03-25T01:05:38;6.70;99.90
10083;DHT22;5080;48.528;8.078;2024-03-25T01:08:06;6.70;99.90
10083;DHT22;5080;48.528;8.078;2024-03-25T01:10:32;6.70;99.90
10083;DHT22;5080;48.528;8.078;2024-03-25T01:13:00;6.70;99.90
10083;DHT22;5080;48.528;8.078;2024-03-25T01:15:26;6.80;99.90
10083;DHT22;5080;48.528;8.078;2024-03-25T01:17:53;6.80;99.90
10083;DHT22;5080;48.528;8.078;2024-03-25T01:20:18;6.90;99.90
10083;DHT22;5080;48.528;8.078;2024-03-25T01:22:45;6.90;99.90
10083;DHT22;5080;48.528;8.078;2024-03-25T01:25:11;6.90;99.90
10083;DHT22;5080;48.528;8.078;2024-03-25T01:27:38;7.00;99.90
10083;DHT22;5080;48.528;8.078;2024-03-25T01:30:08;7.10;99.90
10083;DHT22;5080;48.528;8.078;2024-03-25T01:32:35;7.10;99.90
10083;DHT22;5080;48.528;8.078;2024-03-25T01:35:00;7.10;99.90
10083;DHT22;5080;48.528;8.078;2024-03-25T01:37:28;7.10;99.90
10083;DHT22;5080;48.528;8.078;2024-03-25T01:39:53;7.10;99.90
10083;DHT22;5080;48.528;8.078;2024-03-25T01:42:20;7.10;99.90
10083;DHT22;5080;48.528;8.078;2024-03-25T01:44:46;7.10;99.90
10083;DHT22;5080;48.528;8.078;2024-03-25T01:47:15;7.20;99.90
10083;DHT22;5080;48.528;8.078;2024-03-25T01:49:42;7.10;99.90
10083;DHT22;5080;48.528;8.078;2024-03-25T01:52:09;7.10;99.90
10083;DHT22;5080;48.528;8.078;2024-03-25T01:54:35;7.10;99.90
10083;DHT22;5080;48.528;8.078;2024-03-25T01:57:02;7.10;99.90
10083;DHT22;5080;48.528;8.078;2024-03-25T01:59:29;7.10;99.90
10083;DHT22;5080;48.528;8.078;2024-03-25T02:01:56;7.10;99.90
10083;DHT22;5080;48.528;8.078;2024-03-25T02:04:24;7.00;99.90
10083;DHT22;5080;48.528;8.078;2024-03-25T02:06:51;7.00;99.90
10083;DHT22;5080;48.528;8.078;2024-03-25T02:09:19;7.00;99.90
10083;DHT22;5080;48.528;8.078;2024-03-25T02:11:47;7.00;99.90
10083;DHT22;5080;48.528;8.078;2024-03-25T02:14:12;6.90;99.90
10083;DHT22;5080;48.528;8.078;2024-03-25T02:16:39;6.90;99.90
10083;DHT22;5080;48.528;8.078;2024-03-25T02:19:05;6.90;99.90
10083;DHT22;5080;48.528;8.078;2024-03-25T02:21:34;6.80;99.90
10083;DHT22;5080;48.528;8.078;2024-03-25T02:24:03;6.70;99.90
10083;DHT22;5080;48.528;8.078;2024-03-25T02:26:33;6.70;99.90
10083;DHT22;5080;48.528;8.078;2024-03-25T02:28:59;6.70;99.90
10083;DHT22;5080;48.528;8.078;2024-03-25T02:31:26;6.60;99.90
10083;DHT22;5080;48.528;8.078;2024-03-25T02:33:55;6.60;99.90
10083;DHT22;5080;48.528;8.078;2024-03-25T02:36:22;6.50;99.90
10083;DHT22;5080;48.528;8.078;2024-03-25T02:38:50;6.50;99.90
10083;DHT22;5080;48.528;8.078;2024-03-25T02:41:18;6.50;99.90
10083;DHT22;5080;48.528;8.078;2024-03-25T02:43:51;6.50;99.90
10083;DHT22;5080;48.528;8.078;2024-03-25T02:46:19;6.40;99.90
10083;DHT22;5080;48.528;8.078;2024-03-25T02:48:46;6.40;99.90
10083;DHT22;5080;48.528;8.078;2024-03-25T02:51:18;6.40;99.90
10083;DHT22;5080;48.528;8.078;2024-03-25T02:53:49;6.30;99.90
10083;DHT22;5080;48.528;8.078;2024-03-25T02:56:17;6.40;99.90
10083;DHT22;5080;48.528;8.078;2024-03-25T02:58:46;6.40;99.90
10083;DHT22;5080;48.528;8.078;2024-03-25T03:01:16;6.40;99.90
10083;DHT22;5080;48.528;8.078;2024-03-25T03:03:45;6.40;99.90
10083;DHT22;5080;48.528;8.078;2024-03-25T03:06:14;6.30;99.90
10083;DHT22;5080;48.528;8.078;2024-03-25T03:08:40;6.30;99.90
10083;DHT22;5080;48.528;8.078;2024-03-25T03:11:09;6.40;99.90
10083;DHT22;5080;48.528;8.078;2024-03-25T03:13:35;6.30;99.90
10083;DHT22;5080;48.528;8.078;2024-03-25T03:16:03;6.30;99.90
10083;DHT22;5080;48.528;8.078;2024-03-25T03:18:30;6.40;99.90
10083;DHT22;5080;48.528;8.078;2024-03-25T03:20:59;6.40;99.90
10083;DHT22;5080;48.528;8.078;2024-03-25T03:23:26;6.40;99.90
10083;DHT22;5080;48.528;8.078;2024-03-25T03:25:56;6.40;99.90
10083;DHT22;5080;48.528;8.078;2024-03-25T03:28:25;6.40;99.90
10083;DHT22;5080;48.528;8.078;2024-03-25T03:30:54;6.40;99.90
10083;DHT22;5080;48.528;8.078;2024-03-25T03:33:20;6.40;99.90
10083;DHT22;5080;48.528;8.078;2024-03-25T03:35:52;6.40;99.90
10083;DHT22;5080;48.528;8.078;2024-03-25T03:38:22;6.40;99.90
10083;DHT22;5080;48.528;8.078;2024-03-25T03:40:58;6.50;99.90
10083;DHT22;5080;48.528;8.078;2024-03-25T03:43:24;6.50;99.90
10083;DHT22;5080;48.528;8.078;2024-03-25T03:45:54;6.50;99.90
10083;DHT22;5080;48.528;8.078;2024-03-25T03:48:22;6.50;99.90
10083;DHT22;5080;48.528;8.078;2024-03-25T03:50:49;6.50;99.90
10083;DHT22;5080;48.528;8.078;2024-03-25T03:53:18;6.50;99.90
10083;DHT22;5080;48.528;8.078;2024-03-25T03:55:54;6.50;99.90
10083;DHT22;5080;48.528;8.078;2024-03-25T03:58:20;6.60;99.90
10083;DHT22;5080;48.528;8.078;2024-03-25T04:00:51;6.50;99.90
10083;DHT22;5080;48.528;8.078;2024-03-25T04:03:18;6.50;99.90
10083;DHT22;5080;48.528;8.078;2024-03-25T04:05:45;6.50;99.90
10083;DHT22;5080;48.528;8.078;2024-03-25T04:08:11;6.50;99.90
10083;DHT22;5080;48.528;8.078;2024-03-25T04:10:39;6.50;99.90
10083;DHT22;5080;48.528;8.078;2024-03-25T04:13:06;6.60;99.90
10083;DHT22;5080;48.528;8.078;2024-03-25T04:15:33;6.60;99.90
10083;DHT22;5080;48.528;8.078;2024-03-25T04:17:59;6.50;99.90
10083;DHT22;5080;48.528;8.078;2024-03-25T04:20:26;6.60;99.90
10083;DHT22;5080;48.528;8.078;2024-03-25T04:22:52;6.60;99.90
10083;DHT22;5080;48.528;8.078;2024-03-25T04:25:19;6.60;99.90
10083;DHT22;5080;48.528;8.078;2024-03-25T04:27:46;6.60;99.90
10083;DHT22;5080;48.528;8.078;2024-03-25T04:30:14;6.70;99.90
10083;DHT22;5080;48.528;8.078;2024-03-25T04:32:41;6.60;99.90
10083;DHT22;5080;48.528;8.078;2024-03-25T04:35:08;6.70;99.90
10083;DHT22;5080;48.528;8.078;2024-03-25T04:37:35;6.60;99.90
10083;DHT22;5080;48.528;8.078;2024-03-25T04:40:01;6.60;99.90
10083;DHT22;5080;48.528;8.078;2024-03-25T04:42:27;6.60;99.90
10083;DHT22;5080;48.528;8.078;2024-03-25T04:44:54;6.60;99.90
10083;DHT22;5080;48.528;8.078;2024-03-25T04:47:20;6.60;99.90
10083;DHT22;5080;48.528;8.078;2024-03-25T04:49:46;6.60;99.90
10083;DHT22;5080;48.528;8.078;2024-03-25T04:52:12;6.60;99.90
10083;DHT22;5080;48.528;8.078;2024-03-25T04:54:39;6.60;99.90
10083;DHT22;5080;48.528;8.078;2024-03-25T04:57:05;6.60;99.90
10083;DHT22;5080;48.528;8.078;2024-03-25T04:59:31;6.60;99.90
10083;DHT22;5080;48.528;8.078;2024-03-25T05:01:58;6.60;99.90
10083;DHT22;5080;48.528;8.078;2024-03-25T05:04:24;6.70;99.90
10083;DHT22;5080;48.528;8.078;2024-03-25T05:06:50;6.80;99.90
10083;DHT22;5080;48.528;8.078;2024-03-25T05:09:16;6.60;99.90
10083;DHT22;5080;48.528;8.078;2024-03-25T05:11:42;6.60;99.90
10083;DHT22;5080;48.528;8.078;2024-03-25T05:14:08;6.70;99.90
10083;DHT22;5080;48.528;8.078;2024-03-25T05:16:34;6.70;99.90
10083;DHT22;5080;48.528;8.078;2024-03-25T05:19:01;6.60;99.90
10083;DHT22;5080;48.528;8.078;2024-03-25T05:21:27;6.60;99.90
10083;DHT22;5080;48.528;8.078;2024-03-25T05:23:53;6.60;99.90
10083;DHT22;5080;48.528;8.078;2024-03-25T05:26:19;6.60;99.90
10083;DHT22;5080;48.528;8.078;2024-03-25T05:28:45;6.60;99.90
10083;DHT22;5080;48.528;8.078;2024-03-25T05:31:11;6.60;99.90
10083;DHT22;5080;48.528;8.078;2024-03-25T05:33:37;6.60;99.90
10083;DHT22;5080;48.528;8.078;2024-03-25T05:36:04;6.60;99.90
10083;DHT22;5080;48.528;8.078;2024-03-25T05:38:30;6.60;99.90
10083;DHT22;5080;48.528;8.078;2024-03-25T05:40:56;6.60;99.90
10083;DHT22;5080;48.528;8.078;2024-03-25T05:43:22;6.60;99.90
10083;DHT22;5080;48.528;8.078;2024-03-25T05:45:51;6.50;99.90
10083;DHT22;5080;48.528;8.078;2024-03-25T05:48:17;6.60;99.90
10083;DHT22;5080;48.528;8.078;2024-03-25T05:50:43;6.60;99.90
10083;DHT22;5080;48.528;8.078;2024-03-25T05:53:11;6.60;99.90
10083;DHT22;5080;48.528;8.078;2024-03-25T05:55:37;6.60;99.90
10083;DHT22;5080;48.528;8.078;2024-03-25T05:58:03;6.60;99.90
10083;DHT22;5080;48.528;8.078;2024-03-25T06:00:29;6.60;99.90
10083;DHT22;5080;48.528;8.078;2024-03-25T06:02:55;6.60;99.90
10083;DHT22;5080;48.528;8.078;2024-03-25T06:05:21;6.60;99.90
10083;DHT22;5080;48.528;8.078;2024-03-25T06:07:47;6.60;99.90
10083;DHT22;5080;48.528;8.078;2024-03-25T06:10:14;6.70;99.90
10083;DHT22;5080;48.528;8.078;2024-03-25T06:12:40;6.70;99.90
10083;DHT22;5080;48.528;8.078;2024-03-25T06:15:07;6.70;99.90
10083;DHT22;5080;48.528;8.078;2024-03-25T06:17:33;6.80;99.90
10083;DHT22;5080;48.528;8.078;2024-03-25T06:19:59;6.80;99.90
10083;DHT22;5080;48.528;8.078;2024-03-25T06:22:25;6.80;99.90
10083;DHT22;5080;48.528;8.078;2024-03-25T06:24:51;6.90;99.90
10083;DHT22;5080;48.528;8.078;2024-03-25T06:27:18;6.90;99.90
10083;DHT22;5080;48.528;8.078;2024-03-25T06:29:44;6.90;99.90
10083;DHT22;5080;48.528;8.078;2024-03-25T06:32:09;6.90;99.90
10083;DHT22;5080;48.528;8.078;2024-03-25T06:34:54;6.90;99.90
10083;DHT22;5080;48.528;8.078;2024-03-25T06:37:19;7.00;99.90
10083;DHT22;5080;48.528;8.078;2024-03-25T06:39:45;7.00;99.90
10083;DHT22;5080;48.528;8.078;2024-03-25T06:42:11;7.10;99.90
10083;DHT22;5080;48.528;8.078;2024-03-25T06:44:38;7.10;99.90
10083;DHT22;5080;48.528;8.078;2024-03-25T06:47:04;7.10;99.90
10083;DHT22;5080;48.528;8.078;2024-03-25T06:49:30;7.10;99.90
10083;DHT22;5080;48.528;8.078;2024-03-25T06:51:56;7.10;99.90
10083;DHT22;5080;48.528;8.078;2024-03-25T06:54:22;7.10;99.90
10083;DHT22;5080;48.528;8.078;2024-03-25T06:56:48;7.10;99.90
10083;DHT22;5080;48.528;8.078;2024-03-25T06:59:14;7.10;99.90
10083;DHT22;5080;48.528;8.078;2024-03-25T07:01:41;7.10;99.90
10083;DHT22;5080;48.528;8.078;2024-03-25T07:04:07;7.20;99.90
10083;DHT22;5080;48.528;8.078;2024-03-25T07:06:35;7.30;99.90
10083;DHT22;5080;48.528;8.078;2024-03-25T07:09:00;7.30;99.90
10083;DHT22;5080;48.528;8.078;2024-03-25T07:11:26;7.40;99.90
10083;DHT22;5080;48.528;8.078;2024-03-25T07:13:52;7.50;99.90
10083;DHT22;5080;48.528;8.078;2024-03-25T07:16:18;7.50;99.90
10083;DHT22;5080;48.528;8.078;2024-03-25T07:18:45;7.60;99.90
10083;DHT22;5080;48.528;8.078;2024-03-25T07:21:11;7.70;99.90
10083;DHT22;5080;48.528;8.078;2024-03-25T07:23:37;7.70;99.90
10083;DHT22;5080;48.528;8.078;2024-03-25T07:26:03;7.80;99.90
10083;DHT22;5080;48.528;8.078;2024-03-25T07:28:29;7.90;99.90
10083;DHT22;5080;48.528;8.078;2024-03-25T07:30:55;7.90;99.90
10083;DHT22;5080;48.528;8.078;2024-03-25T07:33:21;7.90;99.90
10083;DHT22;5080;48.528;8.078;2024-03-25T07:35:48;8.00;99.90
10083;DHT22;5080;48.528;8.078;2024-03-25T07:38:14;8.20;99.90
10083;DHT22;5080;48.528;8.078;2024-03-25T07:40:40;8.40;99.90
10083;DHT22;5080;48.528;8.078;2024-03-25T07:43:06;8.50;99.90
10083;DHT22;5080;48.528;8.078;2024-03-25T07:45:32;8.60;99.90
10083;DHT22;5080;48.528;8.078;2024-03-25T07:47:58;8.80;99.90
10083;DHT22;5080;48.528;8.078;2024-03-25T07:50:24;8.90;99.90
10083;DHT22;5080;48.528;8.078;2024-03-25T07:52:51;9.00;99.90
10083;DHT22;5080;48.528;8.078;2024-03-25T07:55:17;9.10;99.90
10083;DHT22;5080;48.528;8.078;2024-03-25T07:57:43;9.30;99.90
10083;DHT22;5080;48.528;8.078;2024-03-25T08:00:09;9.40;99.90
10083;DHT22;5080;48.528;8.078;2024-03-25T08:02:35;9.50;99.90
10083;DHT22;5080;48.528;8.078;2024-03-25T08:05:01;9.60;99.90
10083;DHT22;5080;48.528;8.078;2024-03-25T08:07:27;9.70;99.90
10083;DHT22;5080;48.528;8.078;2024-03-25T08:09:54;9.80;99.90
10083;DHT22;5080;48.528;8.078;2024-03-25T08:12:20;10.10;99.90
10083;DHT22;5080;48.528;8.078;2024-03-25T08:14:47;10.10;99.90
10083;DHT22;5080;48.528;8.078;2024-03-25T08:17:12;10.20;99.90
10083;DHT22;5080;48.528;8.078;2024-03-25T08:19:38;10.30;99.90
10083;DHT22;5080;48.528;8.078;2024-03-25T08:22:04;10.50;99.90
10083;DHT22;5080;48.528;8.078;2024-03-25T08:24:30;10.70;99.90
10083;DHT22;5080;48.528;8.078;2024-03-25T08:26:57;10.80;99.90
10083;DHT22;5080;48.528;8.078;2024-03-25T08:29:23;10.90;99.90
10083;DHT22;5080;48.528;8.078;2024-03-25T08:31:49;11.10;99.90
10083;DHT22;5080;48.528;8.078;2024-03-25T08:34:15;11.20;99.90
10083;DHT22;5080;48.528;8.078;2024-03-25T08:36:41;11.30;99.90
10083;DHT22;5080;48.528;8.078;2024-03-25T08:39:06;11.40;99.90
10083;DHT22;5080;48.528;8.078;2024-03-25T08:41:32;11.50;99.90
10083;DHT22;5080;48.528;8.078;2024-03-25T08:44:00;11.40;99.90
10083;DHT22;5080;48.528;8.078;2024-03-25T08:46:26;11.10;99.90
10083;DHT22;5080;48.528;8.078;2024-03-25T08:48:52;11.30;99.90
10083;DHT22;5080;48.528;8.078;2024-03-25T08:51:18;11.40;99.90
10083;DHT22;5080;48.528;8.078;2024-03-25T08:53:44;11.50;99.90
10083;DHT22;5080;48.528;8.078;2024-03-25T08:56:10;11.50;99.90
10083;DHT22;5080;48.528;8.078;2024-03-25T08:58:35;11.70;99.90
10083;DHT22;5080;48.528;8.078;2024-03-25T09:01:03;11.90;99.90
10083;DHT22;5080;48.528;8.078;2024-03-25T09:03:29;12.10;99.90
10083;DHT22;5080;48.528;8.078;2024-03-25T09:05:55;12.40;99.90
10083;DHT22;5080;48.528;8.078;2024-03-25T09:08:20;12.40;99.90
10083;DHT22;5080;48.528;8.078;2024-03-25T09:10:46;12.40;99.90
10083;DHT22;5080;48.528;8.078;2024-03-25T09:13:30;12.60;99.90
10083;DHT22;5080;48.528;8.078;2024-03-25T09:15:56;12.80;99.90
10083;DHT22;5080;48.528;8.078;2024-03-25T09:18:24;12.90;99.90
10083;DHT22;5080;48.528;8.078;2024-03-25T09:20:49;12.60;99.90
10083;DHT22;5080;48.528;8.078;2024-03-25T09:23:15;12.50;99.90
10083;DHT22;5080;48.528;8.078;2024-03-25T09:25:51;12.40;99.90
10083;DHT22;5080;48.528;8.078;2024-03-25T09:28:17;12.60;99.90
10083;DHT22;5080;48.528;8.078;2024-03-25T09:30:42;12.90;99.90
10083;DHT22;5080;48.528;8.078;2024-03-25T09:33:09;13.20;99.90
10083;DHT22;5080;48.528;8.078;2024-03-25T09:35:36;13.50;99.90
10083;DHT22;5080;48.528;8.078;2024-03-25T09:38:02;13.70;99.90
10083;DHT22;5080;48.528;8.078;2024-03-25T09:40:29;13.90;99.90
10083;DHT22;5080;48.528;8.078;2024-03-25T09:42:56;14.10;99.90
10083;DHT22;5080;48.528;8.078;2024-03-25T09:45:24;14.10;99.90
10083;DHT22;5080;48.528;8.078;2024-03-25T09:47:51;14.30;99.90
10083;DHT22;5080;48.528;8.078;2024-03-25T09:50:17;14.40;99.90
10083;DHT22;5080;48.528;8.078;2024-03-25T09:52:46;14.20;99.90
10083;DHT22;5080;48.528;8.078;2024-03-25T09:55:12;14.00;99.90
10083;DHT22;5080;48.528;8.078;2024-03-25T09:57:38;13.60;99.90
10083;DHT22;5080;48.528;8.078;2024-03-25T10:00:05;13.40;99.90
10083;DHT22;5080;48.528;8.078;2024-03-25T10:02:34;13.60;99.90
10083;DHT22;5080;48.528;8.078;2024-03-25T10:05:01;13.40;99.90
10083;DHT22;5080;48.528;8.078;2024-03-25T10:07:27;13.70;99.90
10083;DHT22;5080;48.528;8.078;2024-03-25T10:09:55;14.10;99.90
10083;DHT22;5080;48.528;8.078;2024-03-25T10:12:21;14.30;99.90
10083;DHT22;5080;48.528;8.078;2024-03-25T10:14:47;14.30;99.90
10083;DHT22;5080;48.528;8.078;2024-03-25T10:17:12;14.30;99.90
10083;DHT22;5080;48.528;8.078;2024-03-25T10:19:38;14.20;99.90
10083;DHT22;5080;48.528;8.078;2024-03-25T10:22:05;14.30;99.90
10083;DHT22;5080;48.528;8.078;2024-03-25T10:24:41;14.20;99.90
10083;DHT22;5080;48.528;8.078;2024-03-25T10:27:17;14.40;99.90
10083;DHT22;5080;48.528;8.078;2024-03-25T10:29:43;14.70;99.90
10083;DHT22;5080;48.528;8.078;2024-03-25T10:32:09;14.80;99.90
10083;DHT22;5080;48.528;8.078;2024-03-25T10:34:35;14.50;99.90
10083;DHT22;5080;48.528;8.078;2024-03-25T10:37:02;13.80;99.90
10083;DHT22;5080;48.528;8.078;2024-03-25T10:39:31;13.50;99.90
10083;DHT22;5080;48.528;8.078;2024-03-25T10:41:58;13.90;99.90
10083;DHT22;5080;48.528;8.078;2024-03-25T10:44:26;14.30;99.90
10083;DHT22;5080;48.528;8.078;2024-03-25T10:46:57;14.60;99.90
10083;DHT22;5080;48.528;8.078;2024-03-25T10:49:32;14.80;99.90
10083;DHT22;5080;48.528;8.078;2024-03-25T10:52:00;14.80;99.90
10083;DHT22;5080;48.528;8.078;2024-03-25T10:54:28;14.80;99.90
10083;DHT22;5080;48.528;8.078;2024-03-25T10:56:55;14.80;99.90
10083;DHT22;5080;48.528;8.078;2024-03-25T10:59:23;14.50;99.90
10083;DHT22;5080;48.528;8.078;2024-03-25T11:01:51;14.40;99.90
10083;DHT22;5080;48.528;8.078;2024-03-25T11:04:16;14.70;99.90
10083;DHT22;5080;48.528;8.078;2024-03-25T11:06:42;14.90;99.90
10083;DHT22;5080;48.528;8.078;2024-03-25T11:09:08;15.20;99.90
10083;DHT22;5080;48.528;8.078;2024-03-25T11:11:34;15.40;99.90
10083;DHT22;5080;48.528;8.078;2024-03-25T11:14:02;15.50;99.90
10083;DHT22;5080;48.528;8.078;2024-03-25T11:16:32;15.70;99.90
10083;DHT22;5080;48.528;8.078;2024-03-25T11:19:02;15.70;99.90
10083;DHT22;5080;48.528;8.078;2024-03-25T11:21:28;15.80;99.90
10083;DHT22;5080;48.528;8.078;2024-03-25T11:23:54;15.80;99.90
10083;DHT22;5080;48.528;8.078;2024-03-25T11:26:21;15.60;99.90
10083;DHT22;5080;48.528;8.078;2024-03-25T11:28:47;15.50;99.90
10083;DHT22;5080;48.528;8.078;2024-03-25T11:31:13;15.30;99.90
10083;DHT22;5080;48.528;8.078;2024-03-25T11:33:39;15.50;99.90
10083;DHT22;5080;48.528;8.078;2024-03-25T11:36:09;15.70;99.90
10083;DHT22;5080;48.528;8.078;2024-03-25T11:38:35;15.90;99.90
10083;DHT22;5080;48.528;8.078;2024-03-25T11:41:01;16.00;99.90
10083;DHT22;5080;48.528;8.078;2024-03-25T11:43:27;16.10;99.90
10083;DHT22;5080;48.528;8.078;2024-03-25T11:45:53;16.10;99.90
10083;DHT22;5080;48.528;8.078;2024-03-25T11:48:19;16.30;99.90
10083;DHT22;5080;48.528;8.078;2024-03-25T11:50:45;16.30;99.90
10083;DHT22;5080;48.528;8.078;2024-03-25T11:53:14;16.30;99.90
10083;DHT22;5080;48.528;8.078;2024-03-25T11:55:40;16.30;99.90
10083;DHT22;5080;48.528;8.078;2024-03-25T11:58:06;16.10;99.90
10083;DHT22;5080;48.528;8.078;2024-03-25T12:00:33;16.10;99.90
10083;DHT22;5080;48.528;8.078;2024-03-25T12:02:59;15.80;99.90
10083;DHT22;5080;48.528;8.078;2024-03-25T12:05:25;15.80;99.90
10083;DHT22;5080;48.528;8.078;2024-03-25T12:07:50;15.90;99.90
10083;DHT22;5080;48.528;8.078;2024-03-25T12:10:18;16.10;99.90
10083;DHT22;5080;48.528;8.078;2024-03-25T12:13:02;15.90;99.90
10083;DHT22;5080;48.528;8.078;2024-03-25T12:15:28;15.90;99.90
10083;DHT22;5080;48.528;8.078;2024-03-25T12:17:54;16.10;99.90
10083;DHT22;5080;48.528;8.078;2024-03-25T12:20:20;16.00;99.90
10083;DHT22;5080;48.528;8.078;2024-03-25T12:22:48;16.00;99.90
10083;DHT22;5080;48.528;8.078;2024-03-25T12:25:14;16.10;99.90
10083;DHT22;5080;48.528;8.078;2024-03-25T12:27:41;16.20;99.90
10083;DHT22;5080;48.528;8.078;2024-03-25T12:30:11;16.30;99.90
10083;DHT22;5080;48.528;8.078;2024-03-25T12:32:38;16.20;99.90
10083;DHT22;5080;48.528;8.078;2024-03-25T12:35:07;16.10;99.90
10083;DHT22;5080;48.528;8.078;2024-03-25T12:37:33;15.80;98.90
10083;DHT22;5080;48.528;8.078;2024-03-25T12:39:59;15.60;99.10
10083;DHT22;5080;48.528;8.078;2024-03-25T12:42:25;15.60;99.90
10083;DHT22;5080;48.528;8.078;2024-03-25T12:44:53;15.70;99.90
10083;DHT22;5080;48.528;8.078;2024-03-25T12:47:19;15.90;99.90
10083;DHT22;5080;48.528;8.078;2024-03-25T12:49:44;15.90;99.90
10083;DHT22;5080;48.528;8.078;2024-03-25T12:52:11;15.80;99.90
10083;DHT22;5080;48.528;8.078;2024-03-25T12:54:36;15.60;99.10
10083;DHT22;5080;48.528;8.078;2024-03-25T12:57:02;15.60;98.90
10083;DHT22;5080;48.528;8.078;2024-03-25T12:59:28;15.80;99.90
10083;DHT22;5080;48.528;8.078;2024-03-25T13:01:55;15.90;99.90
10083;DHT22;5080;48.528;8.078;2024-03-25T13:04:21;16.00;99.90
10083;DHT22;5080;48.528;8.078;2024-03-25T13:06:48;16.20;99.90
10083;DHT22;5080;48.528;8.078;2024-03-25T13:09:14;16.20;99.90
10083;DHT22;5080;48.528;8.078;2024-03-25T13:11:41;16.10;99.00
10083;DHT22;5080;48.528;8.078;2024-03-25T13:14:06;16.20;99.40
10083;DHT22;5080;48.528;8.078;2024-03-25T13:16:32;16.20;99.90
10083;DHT22;5080;48.528;8.078;2024-03-25T13:19:00;16.10;99.90
10083;DHT22;5080;48.528;8.078;2024-03-25T13:21:26;16.20;99.90
10083;DHT22;5080;48.528;8.078;2024-03-25T13:23:52;16.30;99.90
10083;DHT22;5080;48.528;8.078;2024-03-25T13:26:18;16.30;99.90
10083;DHT22;5080;48.528;8.078;2024-03-25T13:28:43;16.40;99.90
10083;DHT22;5080;48.528;8.078;2024-03-25T13:31:09;16.40;99.90
10083;DHT22;5080;48.528;8.078;2024-03-25T13:33:35;16.40;99.90
10083;DHT22;5080;48.528;8.078;2024-03-25T13:36:04;16.40;99.90
10083;DHT22;5080;48.528;8.078;2024-03-25T13:38:30;16.40;99.90
10083;DHT22;5080;48.528;8.078;2024-03-25T13:40:55;16.50;99.90
10083;DHT22;5080;48.528;8.078;2024-03-25T13:43:21;16.50;99.90
10083;DHT22;5080;48.528;8.078;2024-03-25T13:45:48;16.50;99.90
10083;DHT22;5080;48.528;8.078;2024-03-25T13:48:15;16.50;99.90
10083;DHT22;5080;48.528;8.078;2024-03-25T13:50:40;16.50;98.50
10083;DHT22;5080;48.528;8.078;2024-03-25T13:53:09;16.30;99.30
10083;DHT22;5080;48.528;8.078;2024-03-25T13:55:35;16.30;99.70
10083;DHT22;5080;48.528;8.078;2024-03-25T13:58:01;16.40;99.90
10083;DHT22;5080;48.528;8.078;2024-03-25T14:00:27;16.50;99.90
10083;DHT22;5080;48.528;8.078;2024-03-25T14:02:53;16.60;99.90
10083;DHT22;5080;48.528;8.078;2024-03-25T14:05:18;16.70;99.90
10083;DHT22;5080;48.528;8.078;2024-03-25T14:07:45;16.70;99.50
10083;DHT22;5080;48.528;8.078;2024-03-25T14:10:13;16.70;99.90
10083;DHT22;5080;48.528;8.078;2024-03-25T14:12:39;16.70;98.80
10083;DHT22;5080;48.528;8.078;2024-03-25T14:15:05;16.70;99.20
10083;DHT22;5080;48.528;8.078;2024-03-25T14:17:31;16.80;98.90
10083;DHT22;5080;48.528;8.078;2024-03-25T14:19:57;16.80;98.50
10083;DHT22;5080;48.528;8.078;2024-03-25T14:22:23;16.80;98.20
10083;DHT22;5080;48.528;8.078;2024-03-25T14:24:49;16.80;98.80
10083;DHT22;5080;48.528;8.078;2024-03-25T14:27:16;16.90;98.30
10083;DHT22;5080;48.528;8.078;2024-03-25T14:29:42;16.70;97.90
10083;DHT22;5080;48.528;8.078;2024-03-25T14:32:08;16.80;98.20
10083;DHT22;5080;48.528;8.078;2024-03-25T14:34:34;16.70;96.90
10083;DHT22;5080;48.528;8.078;2024-03-25T14:37:00;16.70;96.30
10083;DHT22;5080;48.528;8.078;2024-03-25T14:39:26;16.60;97.10
10083;DHT22;5080;48.528;8.078;2024-03-25T14:41:52;16.60;97.10
10083;DHT22;5080;48.528;8.078;2024-03-25T14:44:19;16.60;97.40
10083;DHT22;5080;48.528;8.078;2024-03-25T14:46:45;16.60;97.80
10083;DHT22;5080;48.528;8.078;2024-03-25T14:49:11;16.70;98.10
10083;DHT22;5080;48.528;8.078;2024-03-25T14:51:36;16.70;97.40
10083;DHT22;5080;48.528;8.078;2024-03-25T14:54:02;16.80;97.80
10083;DHT22;5080;48.528;8.078;2024-03-25T14:56:28;16.80;98.20
10083;DHT22;5080;48.528;8.078;2024-03-25T14:58:54;16.90;98.00
10083;DHT22;5080;48.528;8.078;2024-03-25T15:01:22;16.90;98.30
10083;DHT22;5080;48.528;8.078;2024-03-25T15:03:47;16.90;97.80
10083;DHT22;5080;48.528;8.078;2024-03-25T15:06:13;16.90;97.70
10083;DHT22;5080;48.528;8.078;2024-03-25T15:08:39;16.90;96.80
10083;DHT22;5080;48.528;8.078;2024-03-25T15:11:05;16.90;98.30
10083;DHT22;5080;48.528;8.078;2024-03-25T15:13:31;16.80;97.50
10083;DHT22;5080;48.528;8.078;2024-03-25T15:15:57;16.90;98.30
10083;DHT22;5080;48.528;8.078;2024-03-25T15:18:24;16.90;97.70
10083;DHT22;5080;48.528;8.078;2024-03-25T15:21:00;16.90;97.10
10083;DHT22;5080;48.528;8.078;2024-03-25T15:23:26;16.70;96.70
10083;DHT22;5080;48.528;8.078;2024-03-25T15:25:52;16.70;96.70
10083;DHT22;5080;48.528;8.078;2024-03-25T15:28:18;16.70;97.20
10083;DHT22;5080;48.528;8.078;2024-03-25T15:30:45;16.80;97.90
10083;DHT22;5080;48.528;8.078;2024-03-25T15:33:11;16.70;97.70
10083;DHT22;5080;48.528;8.078;2024-03-25T15:35:38;16.80;98.10
10083;DHT22;5080;48.528;8.078;2024-03-25T15:38:04;16.80;97.80
10083;DHT22;5080;48.528;8.078;2024-03-25T15:40:30;16.80;97.60
10083;DHT22;5080;48.528;8.078;2024-03-25T15:42:55;16.90;97.50
10083;DHT22;5080;48.528;8.078;2024-03-25T15:45:21;17.00;96.80
10083;DHT22;5080;48.528;8.078;2024-03-25T15:47:49;17.00;97.10
10083;DHT22;5080;48.528;8.078;2024-03-25T15:50:15;16.90;96.10
10083;DHT22;5080;48.528;8.078;2024-03-25T15:52:42;16.80;96.60